createdAt,value
2023-03-06T00:00:55.801Z,22.64
2023-03-06T00:04:55.784Z,22.62
2023-03-06T00:08:55.732Z,22.61
2023-03-06T00:12:55.701Z,22.62
2023-03-06T00:16:55.695Z,22.61
2023-03-06T00:20:55.624Z,22.60
2023-03-06T00:24:55.810Z,22.59
2023-03-06T00:28:55.800Z,22.59
2023-03-06T00:32:55.740Z,22.58
2023-03-06T00:36:55.740Z,22.57
2023-03-06T00:40:55.678Z,22.57
2023-03-06T00:44:55.655Z,22.57
2023-03-06T00:48:55.581Z,22.56
2023-03-06T00:52:55.540Z,22.55
2023-03-06T00:56:55.525Z,22.55
2023-03-06T01:00:55.543Z,22.55
2023-03-06T01:04:55.674Z,22.54
2023-03-06T01:08:55.547Z,22.54
2023-03-06T01:12:55.755Z,22.54
2023-03-06T01:16:55.942Z,22.52
2023-03-06T01:20:56.161Z,22.52
2023-03-06T01:24:56.300Z,22.51
2023-03-06T01:28:56.501Z,22.51
2023-03-06T01:32:56.673Z,22.51
2023-03-06T01:36:56.877Z,22.50
2023-03-06T01:40:56.865Z,22.50
2023-03-06T01:44:56.960Z,22.50
2023-03-06T01:48:57.071Z,22.49
2023-03-06T01:52:57.200Z,22.49
2023-03-06T01:56:57.260Z,22.48
2023-03-06T02:00:57.301Z,22.47
2023-03-06T02:04:57.303Z,22.47
2023-03-06T02:08:57.355Z,22.47
2023-03-06T02:12:57.334Z,22.45
2023-03-06T02:16:57.447Z,22.45
2023-03-06T02:20:57.471Z,22.45
2023-03-06T02:24:57.447Z,22.43
2023-03-06T02:28:57.499Z,22.43
2023-03-06T02:32:57.570Z,22.43
2023-03-06T02:36:57.592Z,22.42
2023-03-06T02:40:57.616Z,22.42
2023-03-06T02:44:57.599Z,22.42
2023-03-06T02:48:57.599Z,22.41
2023-03-06T02:52:57.628Z,22.41
2023-03-06T02:56:57.627Z,22.40
2023-03-06T03:00:57.593Z,22.40
2023-03-06T03:04:57.619Z,22.40
2023-03-06T03:08:57.571Z,22.38
2023-03-06T03:12:57.563Z,22.38
2023-03-06T03:16:57.569Z,22.38
2023-03-06T03:20:57.531Z,22.37
2023-03-06T03:24:57.567Z,22.38
2023-03-06T03:28:57.542Z,22.36
2023-03-06T03:32:57.498Z,22.36
2023-03-06T03:36:57.517Z,22.35
2023-03-06T03:40:57.498Z,22.35
2023-03-06T03:44:57.507Z,22.35
2023-03-06T03:48:57.512Z,22.35
2023-03-06T03:52:57.489Z,22.34
2023-03-06T03:56:57.504Z,22.33
2023-03-06T04:00:57.502Z,22.33
2023-03-06T04:04:57.605Z,22.32
2023-03-06T04:08:57.556Z,22.32
2023-03-06T04:12:57.537Z,22.31
2023-03-06T04:16:57.542Z,22.31
2023-03-06T04:20:57.595Z,22.31
2023-03-06T04:24:57.603Z,22.31
2023-03-06T04:28:57.601Z,22.31
2023-03-06T04:32:57.603Z,22.30
2023-03-06T04:36:57.605Z,22.29
2023-03-06T04:40:57.648Z,22.29
2023-03-06T04:44:57.653Z,22.28
2023-03-06T04:48:57.719Z,22.27
2023-03-06T04:52:57.703Z,22.27
2023-03-06T04:56:57.746Z,22.27
2023-03-06T05:00:57.805Z,22.26
2023-03-06T05:04:57.792Z,22.26
2023-03-06T05:08:57.817Z,22.26
2023-03-06T05:12:57.865Z,22.25
2023-03-06T05:16:57.882Z,22.25
2023-03-06T05:20:57.923Z,22.24
2023-03-06T05:24:57.970Z,22.24
2023-03-06T05:28:58.012Z,22.23
2023-03-06T05:32:58.049Z,22.23
2023-03-06T05:36:58.071Z,22.23
2023-03-06T05:40:58.133Z,22.23
2023-03-06T05:44:58.177Z,22.22
2023-03-06T05:48:58.250Z,22.22
2023-03-06T05:52:58.290Z,22.21
2023-03-06T05:56:58.320Z,22.21
2023-03-06T06:00:58.391Z,22.21
2023-03-06T06:04:58.440Z,22.20
2023-03-06T06:08:58.499Z,22.20
2023-03-06T06:12:58.499Z,22.20
2023-03-06T06:16:58.570Z,22.21
2023-03-06T06:20:58.627Z,22.20
2023-03-06T06:24:58.633Z,22.20
2023-03-06T06:29:00.225Z,22.20
2023-03-06T06:32:58.771Z,22.20
2023-03-06T06:36:58.811Z,22.19
2023-03-06T06:41:33.093Z,22.28
2023-03-06T06:44:59.811Z,22.35
2023-03-06T06:48:58.807Z,22.44
2023-03-06T06:52:58.837Z,22.52
2023-03-06T06:56:59.317Z,22.61
2023-03-06T07:00:59.099Z,22.75
2023-03-06T07:05:05.648Z,22.88
2023-03-06T07:09:00.348Z,23.00
2023-03-06T07:12:59.195Z,23.12
2023-03-06T07:16:59.141Z,23.24
2023-03-06T07:21:01.275Z,23.34
2023-03-06T07:24:59.084Z,23.44
2023-03-06T07:28:59.339Z,23.51
2023-03-06T07:32:59.110Z,23.58
2023-03-06T07:36:59.340Z,23.65
2023-03-06T07:40:59.333Z,23.71
2023-03-06T07:44:59.848Z,23.74
2023-03-06T07:48:59.737Z,23.74
2023-03-06T07:52:59.845Z,23.63
2023-03-06T07:57:00.340Z,23.53
2023-03-06T08:00:59.967Z,23.43
2023-03-06T08:04:59.955Z,23.37
2023-03-06T08:08:59.989Z,23.32
2023-03-06T08:13:00.374Z,23.28
2023-03-06T08:17:00.011Z,23.25
2023-03-06T08:21:00.017Z,23.23
2023-03-06T08:25:00.360Z,23.22
2023-03-06T08:29:00.114Z,23.20
2023-03-06T08:33:00.073Z,23.19
2023-03-06T08:37:00.054Z,23.18
2023-03-06T08:41:00.380Z,23.19
2023-03-06T08:45:00.394Z,23.22
2023-03-06T08:49:00.375Z,23.34
2023-03-06T08:53:00.184Z,23.42
2023-03-06T08:57:00.247Z,23.54
2023-03-06T09:01:00.517Z,23.61
2023-03-06T09:05:00.438Z,23.66
2023-03-06T09:09:00.726Z,23.72
2023-03-06T09:13:00.624Z,23.76
2023-03-06T09:17:00.593Z,23.81
2023-03-06T09:21:00.536Z,23.85
2023-03-06T09:25:00.507Z,23.90
2023-03-06T09:29:00.468Z,23.95
2023-03-06T09:33:00.469Z,23.97
2023-03-06T09:37:00.914Z,23.90
2023-03-06T09:41:00.399Z,23.97
2023-03-06T09:45:00.397Z,24.00
2023-03-06T09:49:00.378Z,24.05
2023-03-06T09:53:00.393Z,23.76
2023-03-06T09:57:00.918Z,23.57
2023-03-06T10:01:00.489Z,23.44
2023-03-06T10:05:00.573Z,23.19
2023-03-06T10:09:00.883Z,23.12
2023-03-06T10:13:00.811Z,23.11
2023-03-06T10:17:00.910Z,23.01
2023-03-06T10:21:16.909Z,22.87
2023-03-06T10:25:02.138Z,22.83
2023-03-06T10:29:01.444Z,22.73
2023-03-06T10:33:01.120Z,22.58
2023-03-06T10:37:01.427Z,22.53
2023-03-06T10:41:01.442Z,22.54
2023-03-06T10:45:01.460Z,21.49
2023-03-06T10:49:01.417Z,21.01
2023-03-06T10:53:01.399Z,21.14
2023-03-06T10:57:01.535Z,21.11
2023-03-06T11:01:01.915Z,21.31
2023-03-06T11:05:02.037Z,21.36
2023-03-06T11:09:02.073Z,21.46
2023-03-06T11:13:02.164Z,21.48
2023-03-06T11:17:02.237Z,21.48
2023-03-06T11:21:02.384Z,21.49
2023-03-06T11:25:02.534Z,21.46
2023-03-06T11:29:02.598Z,21.46
2023-03-06T11:33:02.697Z,21.44
2023-03-06T11:37:02.949Z,21.46
2023-03-06T11:41:02.908Z,21.48
2023-03-06T11:45:03.438Z,21.81
2023-03-06T11:49:03.189Z,22.14
2023-03-06T11:53:03.450Z,22.48
2023-03-06T11:57:03.356Z,22.77
2023-03-06T12:01:03.475Z,22.96
2023-03-06T12:05:03.699Z,23.13
2023-03-06T12:09:03.576Z,23.24
2023-03-06T12:13:03.548Z,23.33
2023-03-06T12:17:03.622Z,23.40
2023-03-06T12:21:03.728Z,23.51
2023-03-06T12:25:03.818Z,23.61
2023-03-06T12:29:04.624Z,23.65
2023-03-06T12:33:04.018Z,23.73
2023-03-06T12:37:04.490Z,23.67
2023-03-06T12:41:03.937Z,23.59
2023-03-06T12:45:03.905Z,23.52
2023-03-06T12:49:03.878Z,23.45
2023-03-06T12:53:03.853Z,23.40
2023-03-06T12:57:03.826Z,23.43
2023-03-06T13:01:04.507Z,23.48
2023-03-06T13:05:03.764Z,23.51
2023-03-06T13:09:03.695Z,23.54
2023-03-06T13:13:03.631Z,23.48
2023-03-06T13:17:03.627Z,23.45
2023-03-06T13:21:03.594Z,23.44
2023-03-06T13:25:08.489Z,23.43
2023-03-06T13:29:03.495Z,23.41
2023-03-06T13:33:03.442Z,23.37
2023-03-06T13:37:03.478Z,23.36
2023-03-06T13:41:03.452Z,23.34
2023-03-06T13:45:03.398Z,23.33
2023-03-06T13:49:03.340Z,23.33
2023-03-06T13:53:03.299Z,23.31
2023-03-06T13:57:03.245Z,23.28
2023-03-06T14:01:03.217Z,23.23
2023-03-06T14:05:03.277Z,22.64
2023-03-06T14:09:03.472Z,21.76
2023-03-06T14:13:03.463Z,21.31
2023-03-06T14:17:05.076Z,21.73
2023-03-06T14:21:03.660Z,22.06
2023-03-06T14:25:03.706Z,22.27
2023-03-06T14:29:03.823Z,22.43
2023-03-06T14:33:03.706Z,22.56
2023-03-06T14:37:03.728Z,22.64
2023-03-06T14:41:03.660Z,22.71
2023-03-06T14:45:03.610Z,22.76
2023-03-06T14:49:03.579Z,22.78
2023-03-06T14:53:03.543Z,22.81
2023-03-06T14:57:03.488Z,22.83
2023-03-06T15:01:03.450Z,22.82
2023-03-06T15:05:03.514Z,22.83
2023-03-06T15:09:05.258Z,22.83
2023-03-06T15:13:03.376Z,22.83
2023-03-06T15:17:03.560Z,22.83
2023-03-06T15:21:03.275Z,22.83
2023-03-06T15:25:03.541Z,22.83
2023-03-06T15:29:09.320Z,22.83
2023-03-06T15:33:04.177Z,22.81
2023-03-06T15:37:03.151Z,22.81
2023-03-06T15:41:03.172Z,22.81
2023-03-06T15:45:03.350Z,22.82
2023-03-06T15:49:03.487Z,22.84
2023-03-06T15:53:03.636Z,22.85
2023-03-06T15:57:03.819Z,22.85
2023-03-06T16:01:04.110Z,22.86
2023-03-06T16:05:04.101Z,22.85
2023-03-06T16:09:04.220Z,22.85
2023-03-06T16:13:04.386Z,22.84
2023-03-06T16:17:04.559Z,22.82
2023-03-06T16:21:04.726Z,22.82
2023-03-06T16:25:04.880Z,22.81
2023-03-06T16:29:05.043Z,22.81
2023-03-06T16:33:05.192Z,22.80
2023-03-06T16:37:05.407Z,22.79
2023-03-06T16:41:05.528Z,22.79
2023-03-06T16:45:05.669Z,22.77
2023-03-06T16:49:05.856Z,22.77
2023-03-06T16:53:06.048Z,22.76
2023-03-06T16:57:06.197Z,22.76
2023-03-06T17:01:06.586Z,22.73
2023-03-06T17:05:06.620Z,22.72
2023-03-06T17:09:06.801Z,22.71
2023-03-06T17:13:06.988Z,22.70
2023-03-06T17:17:07.122Z,22.69
2023-03-06T17:21:07.353Z,22.68
2023-03-06T17:25:07.540Z,22.67
2023-03-06T17:29:07.749Z,22.67
2023-03-06T17:33:08.014Z,22.66
2023-03-06T17:37:08.285Z,22.67
2023-03-06T17:41:08.199Z,22.66
2023-03-06T17:45:08.121Z,22.65
2023-03-06T17:49:08.075Z,22.65
2023-03-06T17:53:08.073Z,22.65
2023-03-06T17:57:08.027Z,22.64
2023-03-06T18:01:07.994Z,22.64
2023-03-06T18:05:08.015Z,22.62
2023-03-06T18:09:07.906Z,22.62
2023-03-06T18:13:07.864Z,22.62
2023-03-06T18:17:07.932Z,22.61
2023-03-06T18:21:07.878Z,22.61
2023-03-06T18:25:07.888Z,22.60
2023-03-06T18:29:07.816Z,22.60
2023-03-06T18:33:07.778Z,22.59
2023-03-06T18:37:07.764Z,22.58
2023-03-06T18:41:07.727Z,22.57
2023-03-06T18:45:07.669Z,22.57
2023-03-06T18:49:07.615Z,22.56
2023-03-06T18:53:07.592Z,22.56
2023-03-06T18:57:07.592Z,22.56
2023-03-06T19:01:07.692Z,22.55
2023-03-06T19:05:07.800Z,22.55
2023-03-06T19:09:07.979Z,22.55
2023-03-06T19:13:08.203Z,22.54
2023-03-06T19:17:08.432Z,22.54
2023-03-06T19:21:08.659Z,22.54
2023-03-06T19:25:08.602Z,22.53
2023-03-06T19:29:08.582Z,22.52
2023-03-06T19:33:08.595Z,22.51
2023-03-06T19:37:08.491Z,22.51
2023-03-06T19:41:08.466Z,22.50
2023-03-06T19:45:08.419Z,22.50
2023-03-06T19:49:08.378Z,22.50
2023-03-06T19:53:08.359Z,22.50
2023-03-06T19:57:08.325Z,22.49
2023-03-06T20:01:08.307Z,22.49
2023-03-06T20:05:09.378Z,22.48
2023-03-06T20:09:08.237Z,22.48
2023-03-06T20:13:08.163Z,22.48
2023-03-06T20:17:08.138Z,22.47
2023-03-06T20:21:08.130Z,22.45
2023-03-06T20:25:08.054Z,22.45
2023-03-06T20:29:08.021Z,22.44
2023-03-06T20:33:07.978Z,22.44
2023-03-06T20:37:07.952Z,22.43
2023-03-06T20:41:07.898Z,22.43
2023-03-06T20:45:07.950Z,22.43
2023-03-06T20:49:07.815Z,22.42
2023-03-06T20:53:07.839Z,22.42
2023-03-06T20:57:07.771Z,22.42
2023-03-06T21:01:07.693Z,22.41
2023-03-06T21:05:07.744Z,22.41
2023-03-06T21:09:07.684Z,22.40
2023-03-06T21:13:07.601Z,22.40
2023-03-06T21:17:07.551Z,22.39
2023-03-06T21:21:07.530Z,22.38
2023-03-06T21:25:07.474Z,22.38
2023-03-06T21:29:07.457Z,22.38
2023-03-06T21:33:07.430Z,22.37
2023-03-06T21:37:07.392Z,22.36
2023-03-06T21:41:07.357Z,22.37
2023-03-06T21:45:07.359Z,22.35
2023-03-06T21:49:07.351Z,22.35
2023-03-06T21:53:07.367Z,22.35
2023-03-06T21:57:07.437Z,22.34
2023-03-06T22:01:07.365Z,22.33
2023-03-06T22:05:07.397Z,22.33
2023-03-06T22:09:07.400Z,22.32
2023-03-06T22:13:07.416Z,22.32
2023-03-06T22:17:07.391Z,22.32
2023-03-06T22:21:07.420Z,22.31
2023-03-06T22:25:07.443Z,22.31
2023-03-06T22:29:07.422Z,22.32
2023-03-06T22:33:07.401Z,22.31
2023-03-06T22:37:07.404Z,22.30
2023-03-06T22:41:07.392Z,22.30
2023-03-06T22:45:07.433Z,22.30
2023-03-06T22:49:07.432Z,22.30
2023-03-06T22:53:07.466Z,22.29
2023-03-06T22:57:07.483Z,22.29
2023-03-06T23:01:07.565Z,22.29
2023-03-06T23:05:07.521Z,22.28
2023-03-06T23:09:07.551Z,22.27
2023-03-06T23:13:07.583Z,22.27
2023-03-06T23:17:07.614Z,22.26
2023-03-06T23:21:07.634Z,22.25
2023-03-06T23:25:07.696Z,22.25
2023-03-06T23:29:07.700Z,22.25
2023-03-06T23:33:07.712Z,22.25
2023-03-06T23:37:07.740Z,22.25
2023-03-06T23:41:07.759Z,22.24
2023-03-06T23:45:07.795Z,22.24
2023-03-06T23:49:07.812Z,22.24
2023-03-06T23:53:07.866Z,22.23
2023-03-06T23:57:07.845Z,22.23
